sensor_id;sensor_type;location;lat;lon;timestamp;P1;durP1;ratioP1;P2;durP2;ratioP2
58260;SDS011;44058;52.898;6.502;2023-12-29T00:01:10;10.27;;;1.60;;
58260;SDS011;44058;52.898;6.502;2023-12-29T00:03:36;6.80;;;1.90;;
58260;SDS011;44058;52.898;6.502;2023-12-29T00:06:03;9.82;;;2.00;;
58260;SDS011;44058;52.898;6.502;2023-12-29T00:08:29;9.50;;;2.17;;
58260;SDS011;44058;52.898;6.502;2023-12-29T00:10:55;8.70;;;2.00;;
58260;SDS011;44058;52.898;6.502;2023-12-29T00:13:21;7.85;;;2.13;;
58260;SDS011;44058;52.898;6.502;2023-12-29T00:15:51;10.13;;;2.42;;
58260;SDS011;44058;52.898;6.502;2023-12-29T00:20:44;6.65;;;1.88;;
58260;SDS011;44058;52.898;6.502;2023-12-29T00:23:10;7.60;;;2.28;;
58260;SDS011;44058;52.898;6.502;2023-12-29T00:25:36;10.02;;;2.22;;
58260;SDS011;44058;52.898;6.502;2023-12-29T00:28:03;8.35;;;1.58;;
58260;SDS011;44058;52.898;6.502;2023-12-29T00:30:29;7.05;;;1.85;;
58260;SDS011;44058;52.898;6.502;2023-12-29T00:32:55;9.00;;;1.95;;
58260;SDS011;44058;52.898;6.502;2023-12-29T00:35:22;6.40;;;1.80;;
58260;SDS011;44058;52.898;6.502;2023-12-29T00:37:49;6.03;;;1.63;;
58260;SDS011;44058;52.898;6.502;2023-12-29T00:40:15;6.85;;;1.88;;
58260;SDS011;44058;52.898;6.502;2023-12-29T00:42:42;15.45;;;2.15;;
58260;SDS011;44058;52.898;6.502;2023-12-29T00:45:08;7.45;;;1.80;;
58260;SDS011;44058;52.898;6.502;2023-12-29T00:47:34;6.10;;;1.58;;
58260;SDS011;44058;52.898;6.502;2023-12-29T00:50:01;11.68;;;4.43;;
58260;SDS011;44058;52.898;6.502;2023-12-29T00:52:47;10.48;;;1.83;;
58260;SDS011;44058;52.898;6.502;2023-12-29T00:55:13;9.43;;;1.90;;
58260;SDS011;44058;52.898;6.502;2023-12-29T00:57:39;12.50;;;2.33;;
58260;SDS011;44058;52.898;6.502;2023-12-29T01:00:07;9.85;;;2.65;;
58260;SDS011;44058;52.898;6.502;2023-12-29T01:02:34;10.73;;;2.28;;
58260;SDS011;44058;52.898;6.502;2023-12-29T01:05:00;14.32;;;2.70;;
58260;SDS011;44058;52.898;6.502;2023-12-29T01:07:26;11.95;;;2.85;;
58260;SDS011;44058;52.898;6.502;2023-12-29T01:10:12;12.07;;;2.55;;
58260;SDS011;44058;52.898;6.502;2023-12-29T01:12:38;6.85;;;1.90;;
58260;SDS011;44058;52.898;6.502;2023-12-29T01:15:24;10.82;;;2.80;;
58260;SDS011;44058;52.898;6.502;2023-12-29T01:17:51;10.52;;;2.33;;
58260;SDS011;44058;52.898;6.502;2023-12-29T01:20:18;10.95;;;2.35;;
58260;SDS011;44058;52.898;6.502;2023-12-29T01:22:44;14.95;;;2.60;;
58260;SDS011;44058;52.898;6.502;2023-12-29T01:25:10;10.77;;;2.53;;
58260;SDS011;44058;52.898;6.502;2023-12-29T01:27:36;13.27;;;3.30;;
58260;SDS011;44058;52.898;6.502;2023-12-29T01:30:03;9.65;;;2.33;;
58260;SDS011;44058;52.898;6.502;2023-12-29T01:32:29;12.48;;;2.92;;
58260;SDS011;44058;52.898;6.502;2023-12-29T01:34:55;13.00;;;2.92;;
58260;SDS011;44058;52.898;6.502;2023-12-29T01:37:21;13.30;;;2.67;;
58260;SDS011;44058;52.898;6.502;2023-12-29T01:39:47;9.07;;;2.35;;
58260;SDS011;44058;52.898;6.502;2023-12-29T01:42:14;15.23;;;3.45;;
58260;SDS011;44058;52.898;6.502;2023-12-29T01:44:40;12.50;;;2.53;;
58260;SDS011;44058;52.898;6.502;2023-12-29T01:47:10;7.72;;;2.20;;
58260;SDS011;44058;52.898;6.502;2023-12-29T01:49:37;9.77;;;2.28;;
58260;SDS011;44058;52.898;6.502;2023-12-29T01:52:04;9.80;;;2.85;;
58260;SDS011;44058;52.898;6.502;2023-12-29T01:54:31;9.10;;;2.08;;
58260;SDS011;44058;52.898;6.502;2023-12-29T01:56:59;12.63;;;2.33;;
58260;SDS011;44058;52.898;6.502;2023-12-29T01:59:26;11.10;;;2.50;;
58260;SDS011;44058;52.898;6.502;2023-12-29T02:01:53;7.68;;;2.10;;
58260;SDS011;44058;52.898;6.502;2023-12-29T02:04:23;7.00;;;2.33;;
58260;SDS011;44058;52.898;6.502;2023-12-29T02:06:50;12.15;;;2.90;;
58260;SDS011;44058;52.898;6.502;2023-12-29T02:09:19;10.02;;;2.65;;
58260;SDS011;44058;52.898;6.502;2023-12-29T02:11:46;11.77;;;2.72;;
58260;SDS011;44058;52.898;6.502;2023-12-29T02:14:12;11.18;;;2.97;;
58260;SDS011;44058;52.898;6.502;2023-12-29T02:22:05;11.80;;;2.63;;
58260;SDS011;44058;52.898;6.502;2023-12-29T02:24:33;13.75;;;2.13;;
58260;SDS011;44058;52.898;6.502;2023-12-29T02:27:16;11.80;;;2.72;;
58260;SDS011;44058;52.898;6.502;2023-12-29T02:29:45;12.80;;;2.50;;
58260;SDS011;44058;52.898;6.502;2023-12-29T02:32:16;12.95;;;2.67;;
58260;SDS011;44058;52.898;6.502;2023-12-29T02:34:43;13.13;;;2.83;;
58260;SDS011;44058;52.898;6.502;2023-12-29T02:37:10;11.32;;;2.35;;
58260;SDS011;44058;52.898;6.502;2023-12-29T02:39:38;11.73;;;2.60;;
58260;SDS011;44058;52.898;6.502;2023-12-29T02:42:24;10.80;;;2.45;;
58260;SDS011;44058;52.898;6.502;2023-12-29T02:44:51;12.15;;;3.13;;
58260;SDS011;44058;52.898;6.502;2023-12-29T02:47:17;11.25;;;2.80;;
58260;SDS011;44058;52.898;6.502;2023-12-29T02:49:44;13.02;;;3.10;;
58260;SDS011;44058;52.898;6.502;2023-12-29T02:52:10;9.10;;;1.60;;
58260;SDS011;44058;52.898;6.502;2023-12-29T02:54:56;5.13;;;1.25;;
58260;SDS011;44058;52.898;6.502;2023-12-29T02:57:22;9.25;;;2.17;;
58260;SDS011;44058;52.898;6.502;2023-12-29T02:59:49;6.82;;;1.83;;
58260;SDS011;44058;52.898;6.502;2023-12-29T03:02:15;9.70;;;2.53;;
58260;SDS011;44058;52.898;6.502;2023-12-29T03:04:41;10.75;;;2.20;;
58260;SDS011;44058;52.898;6.502;2023-12-29T03:07:09;11.45;;;2.88;;
58260;SDS011;44058;52.898;6.502;2023-12-29T03:09:35;12.27;;;2.55;;
58260;SDS011;44058;52.898;6.502;2023-12-29T03:12:01;12.43;;;3.13;;
58260;SDS011;44058;52.898;6.502;2023-12-29T03:14:27;11.82;;;2.28;;
58260;SDS011;44058;52.898;6.502;2023-12-29T03:16:54;12.68;;;2.72;;
58260;SDS011;44058;52.898;6.502;2023-12-29T03:19:20;9.95;;;2.20;;
58260;SDS011;44058;52.898;6.502;2023-12-29T03:21:47;11.10;;;2.75;;
58260;SDS011;44058;52.898;6.502;2023-12-29T03:24:13;10.10;;;2.38;;
58260;SDS011;44058;52.898;6.502;2023-12-29T03:26:39;13.38;;;3.05;;
58260;SDS011;44058;52.898;6.502;2023-12-29T03:29:06;9.57;;;2.42;;
58260;SDS011;44058;52.898;6.502;2023-12-29T03:31:32;9.13;;;2.65;;
58260;SDS011;44058;52.898;6.502;2023-12-29T03:33:58;11.85;;;2.63;;
58260;SDS011;44058;52.898;6.502;2023-12-29T03:36:24;8.73;;;2.53;;
58260;SDS011;44058;52.898;6.502;2023-12-29T03:38:50;9.07;;;2.83;;
58260;SDS011;44058;52.898;6.502;2023-12-29T03:41:16;8.25;;;2.58;;
58260;SDS011;44058;52.898;6.502;2023-12-29T03:43:42;15.23;;;2.75;;
58260;SDS011;44058;52.898;6.502;2023-12-29T03:46:15;11.70;;;2.33;;
58260;SDS011;44058;52.898;6.502;2023-12-29T03:48:42;11.07;;;2.90;;
58260;SDS011;44058;52.898;6.502;2023-12-29T03:51:08;13.60;;;2.60;;
58260;SDS011;44058;52.898;6.502;2023-12-29T03:53:34;11.63;;;3.35;;
58260;SDS011;44058;52.898;6.502;2023-12-29T03:56:06;14.63;;;3.53;;
58260;SDS011;44058;52.898;6.502;2023-12-29T03:58:33;8.88;;;2.30;;
58260;SDS011;44058;52.898;6.502;2023-12-29T04:00:59;14.10;;;2.67;;
58260;SDS011;44058;52.898;6.502;2023-12-29T04:03:25;13.07;;;2.97;;
58260;SDS011;44058;52.898;6.502;2023-12-29T04:05:51;15.00;;;3.13;;
58260;SDS011;44058;52.898;6.502;2023-12-29T04:08:17;13.48;;;2.83;;
58260;SDS011;44058;52.898;6.502;2023-12-29T04:10:43;12.70;;;2.80;;
58260;SDS011;44058;52.898;6.502;2023-12-29T04:13:09;12.13;;;3.03;;
58260;SDS011;44058;52.898;6.502;2023-12-29T04:15:36;9.88;;;2.92;;
58260;SDS011;44058;52.898;6.502;2023-12-29T04:18:02;19.35;;;3.47;;
58260;SDS011;44058;52.898;6.502;2023-12-29T04:20:28;13.45;;;2.70;;
58260;SDS011;44058;52.898;6.502;2023-12-29T04:22:54;16.40;;;3.10;;
58260;SDS011;44058;52.898;6.502;2023-12-29T04:25:20;17.15;;;3.17;;
58260;SDS011;44058;52.898;6.502;2023-12-29T04:27:46;10.30;;;2.75;;
58260;SDS011;44058;52.898;6.502;2023-12-29T04:30:12;19.85;;;3.00;;
58260;SDS011;44058;52.898;6.502;2023-12-29T04:32:38;14.00;;;3.22;;
58260;SDS011;44058;52.898;6.502;2023-12-29T04:35:04;12.23;;;2.97;;
58260;SDS011;44058;52.898;6.502;2023-12-29T04:37:31;16.75;;;3.05;;
58260;SDS011;44058;52.898;6.502;2023-12-29T04:39:57;13.35;;;2.83;;
58260;SDS011;44058;52.898;6.502;2023-12-29T04:42:23;18.00;;;3.35;;
58260;SDS011;44058;52.898;6.502;2023-12-29T04:44:49;23.27;;;4.15;;
58260;SDS011;44058;52.898;6.502;2023-12-29T04:47:16;19.85;;;3.25;;
58260;SDS011;44058;52.898;6.502;2023-12-29T04:49:42;15.23;;;3.20;;
58260;SDS011;44058;52.898;6.502;2023-12-29T04:52:08;19.23;;;3.75;;
58260;SDS011;44058;52.898;6.502;2023-12-29T04:54:34;15.75;;;3.38;;
58260;SDS011;44058;52.898;6.502;2023-12-29T04:57:00;25.50;;;3.33;;
58260;SDS011;44058;52.898;6.502;2023-12-29T04:59:26;14.10;;;2.85;;
58260;SDS011;44058;52.898;6.502;2023-12-29T05:01:53;19.83;;;3.22;;
58260;SDS011;44058;52.898;6.502;2023-12-29T05:04:19;22.75;;;3.13;;
58260;SDS011;44058;52.898;6.502;2023-12-29T05:06:45;20.58;;;3.85;;
58260;SDS011;44058;52.898;6.502;2023-12-29T05:09:11;17.15;;;3.30;;
58260;SDS011;44058;52.898;6.502;2023-12-29T05:11:37;19.70;;;3.75;;
58260;SDS011;44058;52.898;6.502;2023-12-29T05:14:03;17.35;;;3.30;;
58260;SDS011;44058;52.898;6.502;2023-12-29T05:16:29;18.52;;;3.35;;
58260;SDS011;44058;52.898;6.502;2023-12-29T05:18:55;19.02;;;3.20;;
58260;SDS011;44058;52.898;6.502;2023-12-29T05:21:21;16.05;;;3.33;;
58260;SDS011;44058;52.898;6.502;2023-12-29T05:23:49;17.73;;;3.38;;
58260;SDS011;44058;52.898;6.502;2023-12-29T05:26:15;19.38;;;2.97;;
58260;SDS011;44058;52.898;6.502;2023-12-29T05:28:41;13.43;;;2.88;;
58260;SDS011;44058;52.898;6.502;2023-12-29T05:31:08;15.95;;;3.00;;
58260;SDS011;44058;52.898;6.502;2023-12-29T05:33:34;18.15;;;3.45;;
58260;SDS011;44058;52.898;6.502;2023-12-29T05:36:05;22.10;;;3.45;;
58260;SDS011;44058;52.898;6.502;2023-12-29T05:38:32;17.10;;;3.60;;
58260;SDS011;44058;52.898;6.502;2023-12-29T05:40:59;16.17;;;3.17;;
58260;SDS011;44058;52.898;6.502;2023-12-29T05:43:27;12.60;;;2.80;;
58260;SDS011;44058;52.898;6.502;2023-12-29T05:46:13;16.63;;;2.90;;
58260;SDS011;44058;52.898;6.502;2023-12-29T05:48:40;19.30;;;2.97;;
58260;SDS011;44058;52.898;6.502;2023-12-29T05:51:10;18.20;;;2.63;;
58260;SDS011;44058;52.898;6.502;2023-12-29T05:53:36;23.70;;;2.92;;
58260;SDS011;44058;52.898;6.502;2023-12-29T05:56:03;14.35;;;2.67;;
58260;SDS011;44058;52.898;6.502;2023-12-29T05:58:29;13.27;;;2.63;;
58260;SDS011;44058;52.898;6.502;2023-12-29T06:00:55;10.38;;;2.47;;
58260;SDS011;44058;52.898;6.502;2023-12-29T06:03:21;14.63;;;2.65;;
58260;SDS011;44058;52.898;6.502;2023-12-29T06:05:48;15.15;;;3.17;;
58260;SDS011;44058;52.898;6.502;2023-12-29T06:08:14;12.80;;;2.70;;
58260;SDS011;44058;52.898;6.502;2023-12-29T06:10:40;20.98;;;3.00;;
58260;SDS011;44058;52.898;6.502;2023-12-29T06:13:06;16.33;;;3.08;;
58260;SDS011;44058;52.898;6.502;2023-12-29T06:15:32;15.95;;;3.28;;
58260;SDS011;44058;52.898;6.502;2023-12-29T06:17:58;15.07;;;2.88;;
58260;SDS011;44058;52.898;6.502;2023-12-29T06:20:25;21.20;;;3.45;;
58260;SDS011;44058;52.898;6.502;2023-12-29T06:22:51;12.32;;;2.80;;
58260;SDS011;44058;52.898;6.502;2023-12-29T06:25:17;17.00;;;3.70;;
58260;SDS011;44058;52.898;6.502;2023-12-29T06:27:43;17.40;;;3.70;;
58260;SDS011;44058;52.898;6.502;2023-12-29T06:30:09;21.50;;;3.92;;
58260;SDS011;44058;52.898;6.502;2023-12-29T06:32:36;23.60;;;4.30;;
58260;SDS011;44058;52.898;6.502;2023-12-29T06:35:02;16.65;;;3.15;;
58260;SDS011;44058;52.898;6.502;2023-12-29T06:37:28;21.90;;;3.67;;
58260;SDS011;44058;52.898;6.502;2023-12-29T06:39:54;22.92;;;3.97;;
58260;SDS011;44058;52.898;6.502;2023-12-29T06:42:21;18.33;;;3.67;;
58260;SDS011;44058;52.898;6.502;2023-12-29T06:44:48;17.90;;;3.53;;
58260;SDS011;44058;52.898;6.502;2023-12-29T06:47:14;24.38;;;4.47;;
58260;SDS011;44058;52.898;6.502;2023-12-29T06:49:41;20.02;;;4.45;;
58260;SDS011;44058;52.898;6.502;2023-12-29T06:52:07;22.83;;;3.78;;
58260;SDS011;44058;52.898;6.502;2023-12-29T06:54:33;22.58;;;4.05;;
58260;SDS011;44058;52.898;6.502;2023-12-29T06:57:00;22.27;;;3.70;;
58260;SDS011;44058;52.898;6.502;2023-12-29T06:59:26;23.52;;;4.35;;
58260;SDS011;44058;52.898;6.502;2023-12-29T07:01:52;25.63;;;3.45;;
58260;SDS011;44058;52.898;6.502;2023-12-29T07:04:18;21.45;;;3.70;;
58260;SDS011;44058;52.898;6.502;2023-12-29T07:06:44;23.35;;;3.75;;
58260;SDS011;44058;52.898;6.502;2023-12-29T07:09:11;25.45;;;4.10;;
58260;SDS011;44058;52.898;6.502;2023-12-29T07:11:37;22.42;;;4.13;;
58260;SDS011;44058;52.898;6.502;2023-12-29T07:14:03;15.95;;;3.30;;
58260;SDS011;44058;52.898;6.502;2023-12-29T07:16:29;24.98;;;3.90;;
58260;SDS011;44058;52.898;6.502;2023-12-29T07:18:55;23.02;;;3.83;;
58260;SDS011;44058;52.898;6.502;2023-12-29T07:21:21;27.40;;;4.20;;
58260;SDS011;44058;52.898;6.502;2023-12-29T07:23:48;23.25;;;3.80;;
58260;SDS011;44058;52.898;6.502;2023-12-29T07:26:14;24.02;;;4.43;;
58260;SDS011;44058;52.898;6.502;2023-12-29T07:28:40;24.13;;;4.75;;
58260;SDS011;44058;52.898;6.502;2023-12-29T07:31:06;20.90;;;4.15;;
58260;SDS011;44058;52.898;6.502;2023-12-29T07:33:33;23.20;;;4.45;;
58260;SDS011;44058;52.898;6.502;2023-12-29T07:35:59;25.35;;;4.35;;
58260;SDS011;44058;52.898;6.502;2023-12-29T07:38:25;25.30;;;4.05;;
58260;SDS011;44058;52.898;6.502;2023-12-29T07:40:52;21.63;;;3.92;;
58260;SDS011;44058;52.898;6.502;2023-12-29T07:43:18;23.77;;;4.32;;
58260;SDS011;44058;52.898;6.502;2023-12-29T07:45:44;27.33;;;4.57;;
58260;SDS011;44058;52.898;6.502;2023-12-29T07:48:10;23.05;;;3.90;;
58260;SDS011;44058;52.898;6.502;2023-12-29T07:50:37;21.35;;;4.00;;
58260;SDS011;44058;52.898;6.502;2023-12-29T07:53:03;19.10;;;4.32;;
58260;SDS011;44058;52.898;6.502;2023-12-29T07:55:31;22.30;;;4.07;;
58260;SDS011;44058;52.898;6.502;2023-12-29T07:57:57;28.15;;;4.32;;
58260;SDS011;44058;52.898;6.502;2023-12-29T08:00:23;26.92;;;4.50;;
58260;SDS011;44058;52.898;6.502;2023-12-29T08:02:50;19.75;;;3.72;;
58260;SDS011;44058;52.898;6.502;2023-12-29T08:05:16;19.77;;;3.65;;
58260;SDS011;44058;52.898;6.502;2023-12-29T08:07:42;19.15;;;3.65;;
58260;SDS011;44058;52.898;6.502;2023-12-29T08:10:09;18.02;;;4.03;;
58260;SDS011;44058;52.898;6.502;2023-12-29T08:12:35;24.33;;;4.00;;
58260;SDS011;44058;52.898;6.502;2023-12-29T08:15:01;19.83;;;3.65;;
58260;SDS011;44058;52.898;6.502;2023-12-29T08:17:28;16.15;;;3.28;;
58260;SDS011;44058;52.898;6.502;2023-12-29T08:20:16;17.45;;;3.33;;
58260;SDS011;44058;52.898;6.502;2023-12-29T08:22:42;19.85;;;3.47;;
58260;SDS011;44058;52.898;6.502;2023-12-29T08:25:28;16.25;;;2.90;;
58260;SDS011;44058;52.898;6.502;2023-12-29T08:27:58;15.32;;;2.83;;
58260;SDS011;44058;52.898;6.502;2023-12-29T08:32:50;17.95;;;3.75;;
58260;SDS011;44058;52.898;6.502;2023-12-29T08:35:16;15.98;;;3.20;;
58260;SDS011;44058;52.898;6.502;2023-12-29T08:37:42;23.38;;;3.92;;
58260;SDS011;44058;52.898;6.502;2023-12-29T08:40:08;19.63;;;3.67;;
58260;SDS011;44058;52.898;6.502;2023-12-29T08:42:34;19.45;;;3.70;;
58260;SDS011;44058;52.898;6.502;2023-12-29T08:45:01;19.77;;;3.38;;
58260;SDS011;44058;52.898;6.502;2023-12-29T08:47:28;16.33;;;3.17;;
58260;SDS011;44058;52.898;6.502;2023-12-29T08:49:54;16.50;;;3.42;;
58260;SDS011;44058;52.898;6.502;2023-12-29T08:52:21;15.82;;;3.53;;
58260;SDS011;44058;52.898;6.502;2023-12-29T08:54:47;12.00;;;3.33;;
58260;SDS011;44058;52.898;6.502;2023-12-29T08:57:13;19.33;;;3.22;;
58260;SDS011;44058;52.898;6.502;2023-12-29T08:59:39;15.27;;;3.08;;
58260;SDS011;44058;52.898;6.502;2023-12-29T09:02:06;18.00;;;3.38;;
58260;SDS011;44058;52.898;6.502;2023-12-29T09:04:32;16.92;;;3.22;;
58260;SDS011;44058;52.898;6.502;2023-12-29T09:06:58;13.02;;;2.50;;
58260;SDS011;44058;52.898;6.502;2023-12-29T09:09:24;16.35;;;3.28;;
58260;SDS011;44058;52.898;6.502;2023-12-29T09:11:50;14.20;;;3.20;;
58260;SDS011;44058;52.898;6.502;2023-12-29T09:14:16;16.98;;;3.63;;
58260;SDS011;44058;52.898;6.502;2023-12-29T09:16:42;19.05;;;2.72;;
58260;SDS011;44058;52.898;6.502;2023-12-29T09:19:11;16.58;;;3.00;;
58260;SDS011;44058;52.898;6.502;2023-12-29T09:21:38;10.45;;;2.85;;
58260;SDS011;44058;52.898;6.502;2023-12-29T09:24:04;15.13;;;3.22;;
58260;SDS011;44058;52.898;6.502;2023-12-29T09:26:30;13.88;;;2.65;;
58260;SDS011;44058;52.898;6.502;2023-12-29T09:28:56;17.55;;;3.28;;
58260;SDS011;44058;52.898;6.502;2023-12-29T09:31:22;17.33;;;3.17;;
58260;SDS011;44058;52.898;6.502;2023-12-29T09:33:49;11.75;;;2.63;;
58260;SDS011;44058;52.898;6.502;2023-12-29T09:36:15;14.48;;;2.80;;
58260;SDS011;44058;52.898;6.502;2023-12-29T09:38:41;9.98;;;2.80;;
58260;SDS011;44058;52.898;6.502;2023-12-29T09:41:11;16.42;;;3.10;;
58260;SDS011;44058;52.898;6.502;2023-12-29T09:43:39;13.60;;;2.97;;
58260;SDS011;44058;52.898;6.502;2023-12-29T09:46:08;11.98;;;2.85;;
58260;SDS011;44058;52.898;6.502;2023-12-29T09:48:34;13.50;;;2.75;;
58260;SDS011;44058;52.898;6.502;2023-12-29T09:51:03;18.55;;;2.85;;
58260;SDS011;44058;52.898;6.502;2023-12-29T09:53:30;14.50;;;2.57;;
58260;SDS011;44058;52.898;6.502;2023-12-29T09:55:57;14.75;;;2.80;;
58260;SDS011;44058;52.898;6.502;2023-12-29T09:58:25;14.45;;;2.83;;
58260;SDS011;44058;52.898;6.502;2023-12-29T10:00:51;13.05;;;2.50;;
58260;SDS011;44058;52.898;6.502;2023-12-29T10:03:17;12.75;;;2.53;;
58260;SDS011;44058;52.898;6.502;2023-12-29T10:05:49;12.70;;;2.60;;
58260;SDS011;44058;52.898;6.502;2023-12-29T10:08:16;14.75;;;2.88;;
58260;SDS011;44058;52.898;6.502;2023-12-29T10:10:42;13.52;;;3.50;;
58260;SDS011;44058;52.898;6.502;2023-12-29T10:13:10;14.85;;;2.90;;
58260;SDS011;44058;52.898;6.502;2023-12-29T10:15:50;10.85;;;2.88;;
58260;SDS011;44058;52.898;6.502;2023-12-29T10:18:22;14.77;;;2.83;;
58260;SDS011;44058;52.898;6.502;2023-12-29T10:23:32;18.60;;;3.70;;
58260;SDS011;44058;52.898;6.502;2023-12-29T10:28:24;15.32;;;2.65;;
58260;SDS011;44058;52.898;6.502;2023-12-29T10:30:50;13.48;;;2.85;;
58260;SDS011;44058;52.898;6.502;2023-12-29T10:33:20;17.52;;;3.42;;
58260;SDS011;44058;52.898;6.502;2023-12-29T10:35:56;12.05;;;2.80;;
58260;SDS011;44058;52.898;6.502;2023-12-29T10:38:24;14.32;;;2.53;;
58260;SDS011;44058;52.898;6.502;2023-12-29T10:40:50;12.73;;;2.40;;
58260;SDS011;44058;52.898;6.502;2023-12-29T10:43:21;11.98;;;2.38;;
58260;SDS011;44058;52.898;6.502;2023-12-29T10:45:47;10.02;;;1.90;;
58260;SDS011;44058;52.898;6.502;2023-12-29T10:48:20;11.95;;;2.30;;
58260;SDS011;44058;52.898;6.502;2023-12-29T10:50:49;14.77;;;2.58;;
58260;SDS011;44058;52.898;6.502;2023-12-29T10:53:15;10.93;;;2.55;;
58260;SDS011;44058;52.898;6.502;2023-12-29T10:55:45;10.85;;;2.30;;
58260;SDS011;44058;52.898;6.502;2023-12-29T10:58:11;17.90;;;3.33;;
58260;SDS011;44058;52.898;6.502;2023-12-29T11:00:37;9.73;;;2.25;;
58260;SDS011;44058;52.898;6.502;2023-12-29T11:03:03;10.38;;;1.90;;
58260;SDS011;44058;52.898;6.502;2023-12-29T11:05:30;11.38;;;2.50;;
58260;SDS011;44058;52.898;6.502;2023-12-29T11:07:56;12.52;;;2.38;;
58260;SDS011;44058;52.898;6.502;2023-12-29T11:10:24;11.15;;;2.05;;
58260;SDS011;44058;52.898;6.502;2023-12-29T11:12:51;12.35;;;2.75;;
58260;SDS011;44058;52.898;6.502;2023-12-29T11:15:17;13.57;;;2.55;;
58260;SDS011;44058;52.898;6.502;2023-12-29T11:17:43;9.00;;;2.10;;
58260;SDS011;44058;52.898;6.502;2023-12-29T11:20:14;12.75;;;2.63;;
58260;SDS011;44058;52.898;6.502;2023-12-29T11:22:42;15.27;;;3.10;;
58260;SDS011;44058;52.898;6.502;2023-12-29T11:25:08;10.88;;;2.47;;
58260;SDS011;44058;52.898;6.502;2023-12-29T11:27:35;15.07;;;3.28;;
58260;SDS011;44058;52.898;6.502;2023-12-29T11:30:02;14.05;;;2.10;;
58260;SDS011;44058;52.898;6.502;2023-12-29T11:32:34;14.70;;;2.17;;
58260;SDS011;44058;52.898;6.502;2023-12-29T11:35:06;14.63;;;2.67;;
58260;SDS011;44058;52.898;6.502;2023-12-29T11:37:47;13.98;;;2.65;;
58260;SDS011;44058;52.898;6.502;2023-12-29T11:40:21;13.88;;;2.03;;
58260;SDS011;44058;52.898;6.502;2023-12-29T11:42:49;12.30;;;2.88;;
58260;SDS011;44058;52.898;6.502;2023-12-29T11:45:30;10.50;;;1.95;;
58260;SDS011;44058;52.898;6.502;2023-12-29T11:47:57;20.20;;;2.33;;
58260;SDS011;44058;52.898;6.502;2023-12-29T11:50:31;13.00;;;2.30;;
58260;SDS011;44058;52.898;6.502;2023-12-29T11:52:58;12.43;;;2.25;;
58260;SDS011;44058;52.898;6.502;2023-12-29T11:55:28;8.80;;;2.05;;
58260;SDS011;44058;52.898;6.502;2023-12-29T11:57:55;12.45;;;1.95;;
58260;SDS011;44058;52.898;6.502;2023-12-29T12:00:40;8.88;;;1.77;;
58260;SDS011;44058;52.898;6.502;2023-12-29T12:03:28;12.55;;;2.38;;
58260;SDS011;44058;52.898;6.502;2023-12-29T12:05:55;9.60;;;2.00;;
58260;SDS011;44058;52.898;6.502;2023-12-29T12:08:33;9.05;;;1.63;;
58260;SDS011;44058;52.898;6.502;2023-12-29T12:13:45;10.43;;;2.63;;
58260;SDS011;44058;52.898;6.502;2023-12-29T12:18:57;15.05;;;2.78;;
58260;SDS011;44058;52.898;6.502;2023-12-29T12:21:23;13.32;;;3.35;;
58260;SDS011;44058;52.898;6.502;2023-12-29T12:23:50;14.05;;;2.88;;
58260;SDS011;44058;52.898;6.502;2023-12-29T12:26:18;15.48;;;2.65;;
58260;SDS011;44058;52.898;6.502;2023-12-29T12:28:44;16.60;;;2.75;;
58260;SDS011;44058;52.898;6.502;2023-12-29T12:31:12;10.52;;;2.80;;
58260;SDS011;44058;52.898;6.502;2023-12-29T12:33:38;19.23;;;3.97;;
58260;SDS011;44058;52.898;6.502;2023-12-29T12:36:04;13.38;;;2.60;;
58260;SDS011;44058;52.898;6.502;2023-12-29T12:38:31;16.17;;;2.60;;
58260;SDS011;44058;52.898;6.502;2023-12-29T12:41:09;12.07;;;2.53;;
58260;SDS011;44058;52.898;6.502;2023-12-29T12:43:36;14.95;;;2.08;;
58260;SDS011;44058;52.898;6.502;2023-12-29T12:46:06;10.48;;;2.15;;
58260;SDS011;44058;52.898;6.502;2023-12-29T12:48:42;11.80;;;2.50;;
58260;SDS011;44058;52.898;6.502;2023-12-29T12:51:09;10.70;;;1.95;;
58260;SDS011;44058;52.898;6.502;2023-12-29T12:53:39;8.35;;;2.00;;
58260;SDS011;44058;52.898;6.502;2023-12-29T12:56:05;13.63;;;2.50;;
58260;SDS011;44058;52.898;6.502;2023-12-29T12:58:33;8.20;;;1.88;;
58260;SDS011;44058;52.898;6.502;2023-12-29T13:01:00;11.15;;;1.80;;
58260;SDS011;44058;52.898;6.502;2023-12-29T13:03:26;19.35;;;2.25;;
58260;SDS011;44058;52.898;6.502;2023-12-29T13:05:52;12.05;;;2.17;;
58260;SDS011;44058;52.898;6.502;2023-12-29T13:08:19;10.07;;;1.65;;
58260;SDS011;44058;52.898;6.502;2023-12-29T13:10:46;13.10;;;2.17;;
58260;SDS011;44058;52.898;6.502;2023-12-29T13:13:12;13.88;;;2.40;;
58260;SDS011;44058;52.898;6.502;2023-12-29T13:15:48;10.60;;;1.85;;
58260;SDS011;44058;52.898;6.502;2023-12-29T13:18:15;10.85;;;2.38;;
58260;SDS011;44058;52.898;6.502;2023-12-29T13:20:44;10.73;;;2.05;;
58260;SDS011;44058;52.898;6.502;2023-12-29T13:23:11;11.65;;;2.17;;
58260;SDS011;44058;52.898;6.502;2023-12-29T13:25:38;14.30;;;2.83;;
58260;SDS011;44058;52.898;6.502;2023-12-29T13:28:05;10.55;;;2.40;;
58260;SDS011;44058;52.898;6.502;2023-12-29T13:30:31;8.02;;;2.03;;
58260;SDS011;44058;52.898;6.502;2023-12-29T13:32:58;12.80;;;2.95;;
58260;SDS011;44058;52.898;6.502;2023-12-29T13:35:31;12.82;;;2.72;;
58260;SDS011;44058;52.898;6.502;2023-12-29T13:38:05;10.77;;;1.98;;
58260;SDS011;44058;52.898;6.502;2023-12-29T13:40:54;11.73;;;2.90;;
58260;SDS011;44058;52.898;6.502;2023-12-29T13:43:42;13.63;;;1.98;;
58260;SDS011;44058;52.898;6.502;2023-12-29T13:46:10;12.77;;;2.88;;
58260;SDS011;44058;52.898;6.502;2023-12-29T13:48:37;12.77;;;1.90;;
58260;SDS011;44058;52.898;6.502;2023-12-29T13:51:04;11.27;;;2.10;;
58260;SDS011;44058;52.898;6.502;2023-12-29T13:53:30;10.07;;;1.85;;
58260;SDS011;44058;52.898;6.502;2023-12-29T13:56:06;10.95;;;2.20;;
58260;SDS011;44058;52.898;6.502;2023-12-29T13:58:33;9.30;;;1.80;;
58260;SDS011;44058;52.898;6.502;2023-12-29T14:00:59;9.05;;;1.88;;
58260;SDS011;44058;52.898;6.502;2023-12-29T14:03:37;9.02;;;1.95;;
58260;SDS011;44058;52.898;6.502;2023-12-29T14:06:11;7.88;;;2.30;;
58260;SDS011;44058;52.898;6.502;2023-12-29T14:08:59;11.10;;;2.40;;
58260;SDS011;44058;52.898;6.502;2023-12-29T14:11:25;14.93;;;2.10;;
58260;SDS011;44058;52.898;6.502;2023-12-29T14:13:51;13.07;;;2.88;;
58260;SDS011;44058;52.898;6.502;2023-12-29T14:16:17;14.00;;;2.60;;
58260;SDS011;44058;52.898;6.502;2023-12-29T14:21:31;16.63;;;2.80;;
58260;SDS011;44058;52.898;6.502;2023-12-29T14:23:58;12.93;;;3.13;;
58260;SDS011;44058;52.898;6.502;2023-12-29T14:27:02;12.68;;;2.65;;
58260;SDS011;44058;52.898;6.502;2023-12-29T14:29:29;11.65;;;3.03;;
58260;SDS011;44058;52.898;6.502;2023-12-29T14:32:06;18.10;;;2.88;;
58260;SDS011;44058;52.898;6.502;2023-12-29T14:34:32;11.30;;;2.75;;
58260;SDS011;44058;52.898;6.502;2023-12-29T14:36:58;8.95;;;2.42;;
58260;SDS011;44058;52.898;6.502;2023-12-29T14:39:27;14.80;;;2.63;;
58260;SDS011;44058;52.898;6.502;2023-12-29T14:41:53;17.48;;;2.72;;
58260;SDS011;44058;52.898;6.502;2023-12-29T14:44:39;12.30;;;2.20;;
58260;SDS011;44058;52.898;6.502;2023-12-29T14:47:05;11.95;;;2.22;;
58260;SDS011;44058;52.898;6.502;2023-12-29T14:49:31;17.05;;;2.60;;
58260;SDS011;44058;52.898;6.502;2023-12-29T14:51:57;13.43;;;2.50;;
58260;SDS011;44058;52.898;6.502;2023-12-29T14:54:23;15.05;;;2.65;;
58260;SDS011;44058;52.898;6.502;2023-12-29T14:56:49;18.63;;;3.22;;
58260;SDS011;44058;52.898;6.502;2023-12-29T14:59:16;11.82;;;2.40;;
58260;SDS011;44058;52.898;6.502;2023-12-29T15:01:42;16.08;;;3.03;;
58260;SDS011;44058;52.898;6.502;2023-12-29T15:04:08;12.88;;;2.72;;